Terminal Aerodrome Forecast
Issued by NWS Upton, NY

Home | Current Version | Previous Version | Text Only | Print | Product List | Glossary On
Versions: 1 2 3 4 5 6 7 8 9 10 11 12 13 14 15 16 17 18 19 20 21 22 23 24 25 26 27 28 29 30 31 32 33 34
000
FTUS41 KOKX 262100 AAB
TAFISP
TAF AMD
KISP 262100Z 2621/2718 02016G22KT 3SM -RA BR OVC006
     FM262200 01024G35KT 2SM -RA OVC005
      TEMPO 2622/2702 1SM -RASN
     FM270400 33018G28KT 6SM -RASN OVC015
     FM270800 32013KT P6SM BKN025
     FM271100 31008KT P6SM BKN030=

USA.gov is the U.S. government's official web portal to all federal, state and local government web resources and services.